Time;durP1;ratioP1;P1;durP2;ratioP2;P2;SDS_P1;SDS_P2;PMS_P1;PMS_P2;Temp;Humidity;BMP_temperature;BMP_pressure;BME280_temperature;BME280_humidity;BME280_pressure;Samples;Min_cycle;Max_cycle;Signal;HPM_P1;HPM_P2
2024/02/16 00:02:28;;;;;;;30.70;22.30;;;;;;;5.81;100.00;99915.73;437852;1255;140523;-58
2024/02/16 00:12:35;;;;;;;26.10;21.50;;;;;;;5.58;100.00;99912.41;441657;1252;139808;-62
2024/02/16 00:22:41;;;;;;;26.80;19.90;;;;;;;5.36;100.00;99908.20;438212;1254;139301;-58
2024/02/16 00:32:47;;;;;;;30.90;22.50;;;;;;;5.19;100.00;99908.32;437124;1253;139658;-63
2024/02/16 00:42:53;;;;;;;33.90;25.00;;;;;;;4.97;100.00;99911.86;437129;1252;140319;-62
2024/02/16 00:53:00;;;;;;;28.50;20.90;;;;;;;4.79;100.00;99920.48;436939;1253;140011;-62
2024/02/16 01:03:07;;;;;;;29.00;20.60;;;;;;;4.63;100.00;99914.77;437350;1253;139753;-63
2024/02/16 01:13:13;;;;;;;32.80;22.70;;;;;;;4.48;100.00;99907.28;442789;1253;139498;-63
2024/02/16 01:23:19;;;;;;;28.00;21.90;;;;;;;4.39;100.00;99913.67;437245;1256;141527;-58
2024/02/16 01:33:25;;;;;;;28.60;21.70;;;;;;;4.30;100.00;99908.77;436787;1256;139983;-58
2024/02/16 01:43:31;;;;;;;30.90;22.20;;;;;;;4.21;100.00;99908.72;436842;1256;139669;-57
2024/02/16 01:53:41;;;;;;;28.20;21.50;;;;;;;4.12;100.00;99910.38;436707;1253;139216;-56
2024/02/16 02:03:47;;;;;;;26.10;21.30;;;;;;;4.05;100.00;99912.35;438862;1253;139709;-58
2024/02/16 02:13:53;;;;;;;31.00;23.00;;;;;;;3.94;100.00;99916.81;436519;1256;140101;-58
2024/02/16 02:23:59;;;;;;;28.40;21.90;;;;;;;3.84;100.00;99913.48;437920;1253;140297;-58
2024/02/16 02:34:06;;;;;;;26.60;20.60;;;;;;;3.74;100.00;99909.47;437456;1256;139554;-57
2024/02/16 02:44:11;;;;;;;;;;;;;;;3.64;100.00;99902.31;439767;1252;139701;-62
2024/02/16 02:54:17;;;;;;;28.70;20.30;;;;;;;3.53;100.00;99907.84;439237;1256;126504;-57
2024/02/16 03:04:23;;;;;;;28.30;20.50;;;;;;;3.45;100.00;99914.84;438950;1251;139921;-57
2024/02/16 03:14:30;;;;;;;26.30;20.70;;;;;;;3.37;100.00;99915.58;440212;1253;140043;-57
2024/02/16 03:24:35;;;;;;;32.20;22.90;;;;;;;3.32;100.00;99909.33;442778;1253;139979;-56
2024/02/16 03:34:42;;;;;;;26.70;21.10;;;;;;;3.26;100.00;99912.25;437058;1256;141556;-57
2024/02/16 03:44:48;;;;;;;35.00;23.90;;;;;;;3.17;100.00;99900.58;439673;1252;139296;-57
2024/02/16 03:54:57;;;;;;;31.20;23.10;;;;;;;3.08;100.00;99898.92;438714;1253;139491;-62
2024/02/16 04:05:04;;;;;;;31.70;22.20;;;;;;;3.00;100.00;99905.20;446218;1256;140023;-62
2024/02/16 04:15:09;;;;;;;;;;;;;;;2.93;100.00;99904.69;437661;1253;140728;-57
2024/02/16 04:25:15;;;;;;;29.80;22.10;;;;;;;2.87;100.00;99900.00;440405;1253;126933;-57
2024/02/16 04:35:21;;;;;;;30.70;23.00;;;;;;;2.83;100.00;99890.80;437307;1254;139931;-63
2024/02/16 04:45:30;;;;;;;33.90;25.50;;;;;;;2.85;100.00;99882.42;437237;1252;140170;-62
2024/02/16 04:55:36;;;;;;;34.10;24.00;;;;;;;2.88;100.00;99876.14;438538;1253;139598;-56
2024/02/16 05:05:45;;;;;;;29.50;21.60;;;;;;;2.83;100.00;99876.77;437155;1256;139687;-58
2024/02/16 05:15:54;;;;;;;28.90;21.50;;;;;;;2.75;100.00;99880.27;437257;1255;140053;-63
2024/02/16 05:26:01;;;;;;;30.20;22.90;;;;;;;2.67;100.00;99886.39;436816;1256;140124;-57
2024/02/16 05:36:09;;;;;;;32.10;23.20;;;;;;;2.59;100.00;99881.91;444955;1255;139632;-58
2024/02/16 05:46:17;;;;;;;30.90;22.80;;;;;;;2.55;100.00;99882.73;442106;1255;139891;-58
2024/02/16 05:56:23;;;;;;;29.70;23.10;;;;;;;2.55;100.00;99886.52;442066;1256;141050;-58
2024/02/16 06:06:31;;;;;;;30.90;24.40;;;;;;;2.66;100.00;99883.64;437519;1255;140705;-58
2024/02/16 06:16:38;;;;;;;32.60;23.60;;;;;;;2.86;100.00;99893.64;446863;1253;139170;-58
2024/02/16 06:26:46;;;;;;;33.00;24.70;;;;;;;3.16;100.00;99894.55;438749;1253;140199;-63
2024/02/16 06:36:52;;;;;;;37.40;25.90;;;;;;;3.59;100.00;99900.05;435160;1256;5092180;-63
2024/02/16 06:46:58;;;;;;;39.90;27.90;;;;;;;4.21;100.00;99903.30;440074;1253;141723;-58
2024/02/16 06:57:05;;;;;;;34.40;24.30;;;;;;;5.50;100.00;99903.64;437264;1253;139836;-58
2024/02/16 07:07:14;;;;;;;31.10;22.90;;;;;;;7.63;100.00;99908.11;442288;1255;140463;-63
2024/02/16 07:17:21;;;;;;;27.20;22.50;;;;;;;10.49;100.00;99903.20;451404;1250;139866;-65
2024/02/16 07:27:27;;;;;;;28.30;22.80;;;;;;;12.67;100.00;99895.86;440733;1250;140455;-62
2024/02/16 07:37:33;;;;;;;25.40;21.60;;;;;;;11.38;100.00;99900.48;438432;1254;140478;-63
2024/02/16 07:47:39;;;;;;;28.60;22.40;;;;;;;9.91;100.00;99911.30;437145;1256;140342;-63
2024/02/16 07:57:46;;;;;;;31.00;23.00;;;;;;;9.11;100.00;99913.21;437072;1253;141996;-61
2024/02/16 08:07:53;;;;;;;27.80;23.90;;;;;;;8.95;100.00;99907.05;438541;1253;140809;-62
2024/02/16 08:17:59;;;;;;;25.40;22.30;;;;;;;9.05;100.00;99906.48;438379;1254;141258;-74
2024/02/16 08:28:06;;;;;;;22.90;20.50;;;;;;;10.97;100.00;99900.13;437553;1256;141138;-63
2024/02/16 08:38:12;;;;;;;21.90;19.70;;;;;;;16.26;100.00;99892.08;438174;1254;140631;-63
2024/02/16 08:48:19;;;;;;;19.40;17.60;;;;;;;20.45;96.59;99884.64;437919;1256;141633;-64
2024/02/16 08:58:25;;;;;;;18.40;16.70;;;;;;;22.45;87.98;99874.21;437463;1256;139008;-61
2024/02/16 09:08:33;;;;;;;18.30;16.60;;;;;;;23.52;82.39;99872.15;437520;1256;143123;-61
2024/02/16 09:18:39;;;;;;;17.60;15.80;;;;;;;25.44;77.05;99862.02;437792;1256;139943;-58
2024/02/16 09:28:45;;;;;;;20.00;16.20;;;;;;;26.62;71.62;99856.59;440802;1255;140183;-59
2024/02/16 09:38:51;;;;;;;16.10;14.50;;;;;;;26.62;69.38;99852.26;439673;1255;139866;-69
2024/02/16 09:49:02;;;;;;;9.80;8.30;;;;;;;24.85;66.86;99848.63;451247;1253;139243;-58
2024/02/16 09:59:09;;;;;;;9.70;8.60;;;;;;;20.70;61.44;99850.48;439378;1254;139586;-58
2024/02/16 10:09:25;;;;;;;8.50;7.60;;;;;;;17.65;60.06;99858.45;437469;1254;139410;-59
2024/02/16 10:19:39;;;;;;;10.40;8.30;;;;;;;15.82;62.06;99852.16;437749;1256;140759;-56
2024/02/16 10:29:50;;;;;;;10.60;9.40;;;;;;;14.70;64.19;99846.02;447356;1256;139137;-56
2024/02/16 10:39:59;;;;;;;10.20;8.40;;;;;;;13.93;65.62;99830.96;439742;1255;143501;-58
2024/02/16 10:50:06;;;;;;;12.50;7.90;;;;;;;13.28;67.43;99822.24;451336;1254;139673;-57
2024/02/16 11:00:17;;;;;;;10.50;8.20;;;;;;;12.92;69.00;99809.00;446635;1252;139822;-62
2024/02/16 11:10:23;;;;;;;12.50;9.60;;;;;;;12.67;70.19;99803.16;451247;1253;141058;-74
2024/02/16 11:20:29;;;;;;;14.70;9.70;;;;;;;12.52;71.11;99793.85;440300;1256;141014;-68
2024/02/16 11:30:36;;;;;;;11.30;9.00;;;;;;;12.50;72.48;99783.77;448451;1256;140163;-66
2024/02/16 11:40:53;;;;;;;12.20;9.20;;;;;;;12.53;72.71;99774.58;437783;1256;139238;-60
2024/02/16 11:51:04;;;;;;;12.20;10.20;;;;;;;12.48;73.42;99763.70;438569;1256;140291;-69
2024/02/16 12:01:13;;;;;;;12.50;9.10;;;;;;;12.51;74.27;99758.63;451458;1253;140370;-72
2024/02/16 12:11:19;;;;;;;11.30;8.80;;;;;;;12.60;74.76;99745.84;439619;1254;139857;-58
2024/02/16 12:21:26;;;;;;;11.90;9.00;;;;;;;12.71;74.97;99733.66;439291;1254;139567;-63
2024/02/16 12:31:32;;;;;;;10.70;7.50;;;;;;;12.75;74.93;99723.39;451236;1253;139364;-68
2024/02/16 12:41:38;;;;;;;6.70;4.70;;;;;;;12.97;75.02;99718.47;444988;1254;139453;-62
2024/02/16 12:51:45;;;;;;;7.00;5.00;;;;;;;13.18;74.24;99705.55;437490;1257;139033;-58
2024/02/16 13:01:51;;;;;;;6.30;4.10;;;;;;;13.36;74.00;99695.83;438315;1254;140989;-56
2024/02/16 13:11:57;;;;;;;6.00;3.90;;;;;;;13.51;73.63;99689.13;447745;1253;139228;-55
2024/02/16 13:22:04;;;;;;;6.60;4.50;;;;;;;13.66;73.30;99685.77;437441;1254;140231;-57
2024/02/16 13:32:10;;;;;;;6.80;5.10;;;;;;;13.76;72.89;99677.77;439221;1251;139823;-68
2024/02/16 13:42:17;;;;;;;4.40;3.50;;;;;;;13.89;72.36;99673.08;437271;1255;139477;-68
2024/02/16 13:52:24;;;;;;;6.90;3.80;;;;;;;13.97;71.60;99664.17;442619;1257;139799;-56
2024/02/16 14:02:31;;;;;;;6.60;3.50;;;;;;;14.00;70.95;99657.83;449078;1251;139456;-50
2024/02/16 14:12:38;;;;;;;4.00;3.20;;;;;;;14.01;70.45;99661.58;450159;1253;139186;-60
2024/02/16 14:22:45;;;;;;;5.40;4.30;;;;;;;13.98;70.01;99656.02;437647;1256;139831;-67
2024/02/16 14:32:53;;;;;;;5.90;3.40;;;;;;;13.87;69.70;99651.42;437436;1257;139086;-63
2024/02/16 14:43:00;;;;;;;5.50;3.30;;;;;;;13.77;69.47;99642.88;448890;1254;139439;-58
2024/02/16 14:53:06;;;;;;;7.10;4.40;;;;;;;13.67;69.35;99643.08;442083;1254;139290;-57
2024/02/16 15:03:13;;;;;;;6.60;4.40;;;;;;;13.55;69.37;99640.33;439718;1252;139443;-59
2024/02/16 15:13:20;;;;;;;5.80;4.00;;;;;;;13.37;69.36;99646.01;437325;1252;139438;-57
2024/02/16 15:23:26;;;;;;;7.10;4.60;;;;;;;13.13;69.50;99647.55;451429;1252;139133;-56
2024/02/16 15:33:32;;;;;;;9.20;5.60;;;;;;;12.90;69.68;99637.64;450733;1252;138763;-60
2024/02/16 15:43:38;;;;;;;29.00;11.10;;;;;;;12.66;69.69;99639.41;437501;1254;139003;-66
2024/02/16 15:53:44;;;;;;;23.30;16.60;;;;;;;12.33;69.88;99636.44;437762;1254;139854;-74
2024/02/16 16:03:51;;;;;;;12.50;9.30;;;;;;;11.97;70.14;99638.39;439349;1254;140261;-57
2024/02/16 16:13:59;;;;;;;11.70;7.60;;;;;;;11.59;70.79;99638.98;442593;1252;140145;-59
2024/02/16 16:24:08;;;;;;;12.90;8.70;;;;;;;11.26;71.58;99640.98;438082;1256;139671;-52
2024/02/16 16:34:15;;;;;;;12.30;9.90;;;;;;;10.97;72.27;99643.95;446228;1252;139268;-54
2024/02/16 16:44:25;;;;;;;20.50;12.10;;;;;;;10.67;72.84;99650.71;438454;1253;140068;-57
2024/02/16 16:54:35;;;;;;;20.00;15.70;;;;;;;10.41;74.13;99654.80;441300;1253;139377;-50
2024/02/16 17:04:42;;;;;;;24.10;18.20;;;;;;;10.11;76.19;99644.84;437277;1254;139341;-47
2024/02/16 17:14:48;;;;;;;20.90;14.80;;;;;;;9.82;78.25;99655.35;440044;1252;142308;-59
2024/02/16 17:24:54;;;;;;;23.90;16.70;;;;;;;9.54;79.88;99670.11;437186;1254;139723;-58
2024/02/16 17:35:01;;;;;;;19.60;14.10;;;;;;;9.34;81.46;99676.83;437331;1253;140089;-47
2024/02/16 17:45:09;;;;;;;17.50;12.40;;;;;;;9.17;82.62;99680.42;446197;1251;139511;-48
2024/02/16 17:55:17;;;;;;;17.30;12.30;;;;;;;9.03;83.90;99683.98;440507;1253;139435;-48
2024/02/16 18:05:23;;;;;;;16.20;12.30;;;;;;;8.92;84.89;99685.98;449799;1252;142535;-49
2024/02/16 18:15:29;;;;;;;15.90;11.50;;;;;;;8.83;85.73;99690.45;437371;1252;141330;-57
2024/02/16 18:25:35;;;;;;;19.50;11.20;;;;;;;8.75;86.41;99688.64;438220;1254;139944;-57
2024/02/16 18:35:41;;;;;;;15.10;10.60;;;;;;;8.65;87.23;99684.83;437979;1251;140525;-58
2024/02/16 18:45:48;;;;;;;16.10;10.90;;;;;;;8.57;88.09;99681.95;442293;1253;2300088;-58
2024/02/16 18:55:56;;;;;;;15.90;12.30;;;;;;;8.51;88.84;99683.47;438850;1256;140666;-63
2024/02/16 19:06:02;;;;;;;17.60;12.90;;;;;;;8.44;89.51;99685.89;440167;1253;140577;-52
2024/02/16 19:16:09;;;;;;;17.40;12.00;;;;;;;8.38;90.41;99685.36;437444;1251;139922;-71
2024/02/16 19:26:16;;;;;;;19.90;13.50;;;;;;;8.28;90.84;99682.61;440917;1252;140065;-56
2024/02/16 19:36:22;;;;;;;18.20;14.50;;;;;;;8.16;91.34;99682.67;445576;1251;139566;-74
2024/02/16 19:46:29;;;;;;;20.00;13.90;;;;;;;8.03;91.82;99674.13;438476;1253;140409;-54
2024/02/16 19:56:35;;;;;;;22.00;15.50;;;;;;;7.96;92.44;99672.38;437376;1252;139969;-58
2024/02/16 20:06:41;;;;;;;25.20;17.20;;;;;;;7.90;92.62;99674.41;437990;1253;139820;-53
2024/02/16 20:16:48;;;;;;;19.70;13.70;;;;;;;7.88;93.16;99680.98;451285;1252;140468;-54
2024/02/16 20:26:55;;;;;;;19.00;13.60;;;;;;;7.87;93.32;99677.40;439688;1252;140201;-55
2024/02/16 20:37:01;;;;;;;24.60;16.10;;;;;;;7.87;93.39;99676.49;437423;1253;140511;-53
2024/02/16 20:47:07;;;;;;;19.90;14.30;;;;;;;7.91;93.56;99666.39;437673;1254;139565;-71
2024/02/16 20:57:13;;;;;;;17.60;12.40;;;;;;;7.98;93.56;99660.08;437396;1251;140504;-71
2024/02/16 21:07:20;;;;;;;16.60;11.80;;;;;;;8.03;93.48;99659.84;437246;1256;140243;-53
2024/02/16 21:17:26;;;;;;;14.60;11.20;;;;;;;8.04;93.01;99651.39;437378;1252;139683;-54
2024/02/16 21:27:33;;;;;;;14.30;10.80;;;;;;;8.06;92.89;99647.29;440820;1253;139802;-55
2024/02/16 21:37:39;;;;;;;13.10;9.10;;;;;;;8.09;92.54;99652.55;443554;1252;139957;-53
2024/02/16 21:47:45;;;;;;;13.30;9.40;;;;;;;8.13;92.15;99654.77;439115;1252;139979;-70
2024/02/16 21:57:53;;;;;;;12.10;8.10;;;;;;;8.15;91.76;99653.29;441661;1256;140793;-70
2024/02/16 22:07:59;;;;;;;12.30;9.90;;;;;;;8.14;91.56;99645.98;437496;1255;139702;-58
2024/02/16 22:18:06;;;;;;;10.50;7.80;;;;;;;8.21;91.25;99642.30;437334;1256;139673;-57
2024/02/16 22:28:12;;;;;;;15.00;8.30;;;;;;;8.29;90.99;99641.02;446649;1253;139653;-54
2024/02/16 22:38:18;;;;;;;9.00;7.10;;;;;;;8.34;90.51;99646.83;438033;1253;182535;-69
2024/02/16 22:48:25;;;;;;;8.70;7.10;;;;;;;8.35;90.05;99648.38;437009;1256;139270;-54
2024/02/16 22:58:31;;;;;;;10.70;7.10;;;;;;;8.33;89.90;99656.33;437196;1253;139618;-54
2024/02/16 23:08:55;;;;;;;8.60;6.70;;;;;;;8.26;89.87;99659.30;438644;1253;140220;-70
2024/02/16 23:19:20;;;;;;;10.30;8.20;;;;;;;8.22;89.68;99658.84;438083;1255;140363;-55
2024/02/16 23:29:45;;;;;;;10.00;7.20;;;;;;;8.19;89.89;99659.35;438733;1250;139722;-55
2024/02/16 23:40:12;;;;;;;9.30;7.10;;;;;;;8.20;90.18;99654.21;437688;1253;139958;-69
2024/02/16 23:50:37;;;;;;;8.60;7.10;;;;;;;8.23;90.05;99652.85;444241;1255;139423;-71
